sensor_id;sensor_type;location;lat;lon;timestamp;pressure;altitude;pressure_sealevel;temperature;humidity
21545;BME280;10933;50.754;11.508;2024-03-29T00:01:23;98078.06;;;4.18;100.00
21545;BME280;10933;50.754;11.508;2024-03-29T00:03:50;98077.44;;;4.10;100.00
21545;BME280;10933;50.754;11.508;2024-03-29T00:06:16;98082.13;;;4.20;100.00
21545;BME280;10933;50.754;11.508;2024-03-29T00:08:42;98075.72;;;4.04;100.00
21545;BME280;10933;50.754;11.508;2024-03-29T00:11:08;98080.69;;;3.96;100.00
21545;BME280;10933;50.754;11.508;2024-03-29T00:13:35;98064.44;;;3.80;100.00
21545;BME280;10933;50.754;11.508;2024-03-29T00:16:01;98067.78;;;3.71;100.00
21545;BME280;10933;50.754;11.508;2024-03-29T00:18:27;98074.28;;;3.80;100.00
21545;BME280;10933;50.754;11.508;2024-03-29T00:20:53;98050.44;;;3.90;100.00
21545;BME280;10933;50.754;11.508;2024-03-29T00:23:19;98060.16;;;3.79;100.00
21545;BME280;10933;50.754;11.508;2024-03-29T00:25:45;98043.25;;;3.91;100.00
21545;BME280;10933;50.754;11.508;2024-03-29T00:28:11;98041.69;;;4.11;100.00
21545;BME280;10933;50.754;11.508;2024-03-29T00:30:37;98052.06;;;4.08;100.00
21545;BME280;10933;50.754;11.508;2024-03-29T00:33:03;98045.13;;;3.90;100.00
21545;BME280;10933;50.754;11.508;2024-03-29T00:35:30;98033.81;;;3.83;100.00
21545;BME280;10933;50.754;11.508;2024-03-29T00:37:56;98028.66;;;3.60;100.00
21545;BME280;10933;50.754;11.508;2024-03-29T00:40:22;98013.84;;;3.86;100.00
21545;BME280;10933;50.754;11.508;2024-03-29T00:42:49;98012.56;;;3.54;100.00
21545;BME280;10933;50.754;11.508;2024-03-29T00:45:15;98007.94;;;3.67;100.00
21545;BME280;10933;50.754;11.508;2024-03-29T00:47:41;98011.69;;;3.66;100.00
21545;BME280;10933;50.754;11.508;2024-03-29T00:50:07;97992.78;;;3.50;100.00
21545;BME280;10933;50.754;11.508;2024-03-29T00:52:35;97988.56;;;3.71;100.00
21545;BME280;10933;50.754;11.508;2024-03-29T00:55:01;97979.78;;;3.71;100.00
21545;BME280;10933;50.754;11.508;2024-03-29T00:57:28;97986.78;;;3.77;100.00
21545;BME280;10933;50.754;11.508;2024-03-29T00:59:55;97982.78;;;3.58;100.00
21545;BME280;10933;50.754;11.508;2024-03-29T01:02:23;97983.66;;;3.30;100.00
21545;BME280;10933;50.754;11.508;2024-03-29T01:04:49;97977.25;;;3.64;100.00
21545;BME280;10933;50.754;11.508;2024-03-29T01:07:16;97981.88;;;3.52;100.00
21545;BME280;10933;50.754;11.508;2024-03-29T01:09:43;97973.63;;;3.53;100.00
21545;BME280;10933;50.754;11.508;2024-03-29T01:12:10;97981.06;;;3.51;100.00
21545;BME280;10933;50.754;11.508;2024-03-29T01:14:36;97976.44;;;3.64;100.00
21545;BME280;10933;50.754;11.508;2024-03-29T01:17:02;97975.19;;;3.49;100.00
21545;BME280;10933;50.754;11.508;2024-03-29T01:19:29;97981.94;;;3.74;100.00
21545;BME280;10933;50.754;11.508;2024-03-29T01:21:55;97984.22;;;3.48;100.00
21545;BME280;10933;50.754;11.508;2024-03-29T01:24:21;97989.50;;;3.43;100.00
21545;BME280;10933;50.754;11.508;2024-03-29T01:26:47;97985.28;;;3.31;100.00
21545;BME280;10933;50.754;11.508;2024-03-29T01:29:14;97986.00;;;3.26;100.00
21545;BME280;10933;50.754;11.508;2024-03-29T01:31:40;97985.94;;;3.21;100.00
21545;BME280;10933;50.754;11.508;2024-03-29T01:34:06;97993.97;;;2.92;100.00
21545;BME280;10933;50.754;11.508;2024-03-29T01:36:32;97977.28;;;3.14;100.00
21545;BME280;10933;50.754;11.508;2024-03-29T01:38:58;97961.78;;;3.11;100.00
21545;BME280;10933;50.754;11.508;2024-03-29T01:41:24;97975.72;;;2.84;100.00
21545;BME280;10933;50.754;11.508;2024-03-29T01:43:54;97967.59;;;3.08;100.00
21545;BME280;10933;50.754;11.508;2024-03-29T01:46:22;97966.06;;;3.12;100.00
21545;BME280;10933;50.754;11.508;2024-03-29T01:48:50;97954.34;;;3.13;100.00
21545;BME280;10933;50.754;11.508;2024-03-29T01:51:17;97943.69;;;2.96;100.00
21545;BME280;10933;50.754;11.508;2024-03-29T01:53:45;97954.66;;;3.00;100.00
21545;BME280;10933;50.754;11.508;2024-03-29T01:56:12;97942.88;;;3.12;100.00
21545;BME280;10933;50.754;11.508;2024-03-29T01:58:39;97928.91;;;2.88;100.00
21545;BME280;10933;50.754;11.508;2024-03-29T02:01:07;97928.50;;;2.97;100.00
21545;BME280;10933;50.754;11.508;2024-03-29T02:03:34;97941.09;;;2.84;100.00
21545;BME280;10933;50.754;11.508;2024-03-29T02:06:00;97936.94;;;3.05;100.00
21545;BME280;10933;50.754;11.508;2024-03-29T02:08:27;97938.94;;;2.98;100.00
21545;BME280;10933;50.754;11.508;2024-03-29T02:10:54;97937.63;;;3.17;100.00
21545;BME280;10933;50.754;11.508;2024-03-29T02:13:20;97933.66;;;2.86;100.00
21545;BME280;10933;50.754;11.508;2024-03-29T02:15:46;97923.41;;;2.78;100.00
21545;BME280;10933;50.754;11.508;2024-03-29T02:18:12;97928.50;;;2.80;100.00
21545;BME280;10933;50.754;11.508;2024-03-29T02:20:38;97926.28;;;2.60;100.00
21545;BME280;10933;50.754;11.508;2024-03-29T02:23:10;97920.78;;;2.50;100.00
21545;BME280;10933;50.754;11.508;2024-03-29T02:25:37;97923.81;;;2.70;100.00
21545;BME280;10933;50.754;11.508;2024-03-29T02:28:04;97928.28;;;2.81;100.00
21545;BME280;10933;50.754;11.508;2024-03-29T02:30:31;97939.72;;;2.82;100.00
21545;BME280;10933;50.754;11.508;2024-03-29T02:33:01;97934.63;;;2.80;100.00
21545;BME280;10933;50.754;11.508;2024-03-29T02:35:28;97932.44;;;2.77;100.00
21545;BME280;10933;50.754;11.508;2024-03-29T02:37:54;97937.75;;;2.60;100.00
21545;BME280;10933;50.754;11.508;2024-03-29T02:40:21;97927.34;;;2.76;100.00
21545;BME280;10933;50.754;11.508;2024-03-29T02:42:49;97935.09;;;2.77;100.00
21545;BME280;10933;50.754;11.508;2024-03-29T02:45:16;97935.69;;;2.51;100.00
21545;BME280;10933;50.754;11.508;2024-03-29T02:47:42;97933.50;;;2.48;100.00
21545;BME280;10933;50.754;11.508;2024-03-29T02:50:10;97924.94;;;2.74;100.00
21545;BME280;10933;50.754;11.508;2024-03-29T02:52:36;97921.03;;;2.65;100.00
21545;BME280;10933;50.754;11.508;2024-03-29T02:55:03;97912.59;;;2.68;100.00
21545;BME280;10933;50.754;11.508;2024-03-29T02:57:29;97905.66;;;2.67;100.00
21545;BME280;10933;50.754;11.508;2024-03-29T02:59:55;97887.19;;;2.94;100.00
21545;BME280;10933;50.754;11.508;2024-03-29T03:02:21;97866.44;;;2.96;100.00
21545;BME280;10933;50.754;11.508;2024-03-29T03:04:47;97872.34;;;2.81;100.00
21545;BME280;10933;50.754;11.508;2024-03-29T03:07:13;97869.75;;;2.86;100.00
21545;BME280;10933;50.754;11.508;2024-03-29T03:09:58;97885.41;;;2.83;100.00
21545;BME280;10933;50.754;11.508;2024-03-29T03:12:43;97888.63;;;2.85;100.00
21545;BME280;10933;50.754;11.508;2024-03-29T03:15:09;97880.91;;;2.83;100.00
21545;BME280;10933;50.754;11.508;2024-03-29T03:17:36;97878.78;;;2.85;100.00
21545;BME280;10933;50.754;11.508;2024-03-29T03:20:02;97875.25;;;2.97;100.00
21545;BME280;10933;50.754;11.508;2024-03-29T03:22:31;97876.34;;;3.17;100.00
21545;BME280;10933;50.754;11.508;2024-03-29T03:24:57;97862.00;;;3.02;100.00
21545;BME280;10933;50.754;11.508;2024-03-29T03:27:23;97856.09;;;3.00;100.00
21545;BME280;10933;50.754;11.508;2024-03-29T03:29:49;97869.88;;;3.30;100.00
21545;BME280;10933;50.754;11.508;2024-03-29T03:32:15;97858.38;;;3.08;100.00
21545;BME280;10933;50.754;11.508;2024-03-29T03:34:41;97868.59;;;3.16;100.00
21545;BME280;10933;50.754;11.508;2024-03-29T03:37:07;97872.16;;;3.21;100.00
21545;BME280;10933;50.754;11.508;2024-03-29T03:39:33;97878.56;;;3.42;100.00
21545;BME280;10933;50.754;11.508;2024-03-29T03:41:59;97882.72;;;3.72;100.00
21545;BME280;10933;50.754;11.508;2024-03-29T03:44:25;97884.50;;;3.66;100.00
21545;BME280;10933;50.754;11.508;2024-03-29T03:46:52;97882.13;;;3.48;100.00
21545;BME280;10933;50.754;11.508;2024-03-29T03:49:18;97855.28;;;3.54;100.00
21545;BME280;10933;50.754;11.508;2024-03-29T03:51:44;97864.97;;;3.61;100.00
21545;BME280;10933;50.754;11.508;2024-03-29T03:54:10;97860.41;;;3.39;100.00
21545;BME280;10933;50.754;11.508;2024-03-29T03:56:36;97851.81;;;3.15;100.00
21545;BME280;10933;50.754;11.508;2024-03-29T03:59:02;97853.91;;;3.52;100.00
21545;BME280;10933;50.754;11.508;2024-03-29T04:01:28;97853.56;;;3.43;100.00
21545;BME280;10933;50.754;11.508;2024-03-29T04:03:54;97866.03;;;3.60;100.00
21545;BME280;10933;50.754;11.508;2024-03-29T04:06:20;97863.50;;;3.70;100.00
21545;BME280;10933;50.754;11.508;2024-03-29T04:08:47;97871.91;;;3.62;100.00
21545;BME280;10933;50.754;11.508;2024-03-29T04:11:13;97869.50;;;3.60;100.00
21545;BME280;10933;50.754;11.508;2024-03-29T04:13:39;97869.59;;;3.48;100.00
21545;BME280;10933;50.754;11.508;2024-03-29T04:16:07;97870.28;;;3.61;100.00
21545;BME280;10933;50.754;11.508;2024-03-29T04:18:34;97879.97;;;3.67;100.00
21545;BME280;10933;50.754;11.508;2024-03-29T04:21:01;97869.53;;;3.43;100.00
21545;BME280;10933;50.754;11.508;2024-03-29T04:23:28;97884.00;;;3.69;100.00
21545;BME280;10933;50.754;11.508;2024-03-29T04:25:58;97877.50;;;3.82;100.00
21545;BME280;10933;50.754;11.508;2024-03-29T04:28:25;97895.00;;;3.73;100.00
21545;BME280;10933;50.754;11.508;2024-03-29T04:30:56;97900.03;;;3.69;100.00
21545;BME280;10933;50.754;11.508;2024-03-29T04:33:22;97909.69;;;3.75;100.00
21545;BME280;10933;50.754;11.508;2024-03-29T04:36:03;97908.72;;;3.65;100.00
21545;BME280;10933;50.754;11.508;2024-03-29T04:38:30;97906.50;;;3.78;100.00
21545;BME280;10933;50.754;11.508;2024-03-29T04:40:58;97909.94;;;3.96;100.00
21545;BME280;10933;50.754;11.508;2024-03-29T04:43:28;97906.34;;;3.85;100.00
21545;BME280;10933;50.754;11.508;2024-03-29T04:46:11;97901.03;;;3.46;100.00
21545;BME280;10933;50.754;11.508;2024-03-29T04:48:38;97914.00;;;3.60;100.00
21545;BME280;10933;50.754;11.508;2024-03-29T04:51:04;97916.13;;;3.79;100.00
21545;BME280;10933;50.754;11.508;2024-03-29T04:53:31;97908.81;;;3.92;100.00
21545;BME280;10933;50.754;11.508;2024-03-29T04:55:57;97903.72;;;3.90;100.00
21545;BME280;10933;50.754;11.508;2024-03-29T04:58:24;97913.41;;;3.74;100.00
21545;BME280;10933;50.754;11.508;2024-03-29T05:00:51;97915.47;;;3.89;100.00
21545;BME280;10933;50.754;11.508;2024-03-29T05:03:18;97910.75;;;3.96;100.00
21545;BME280;10933;50.754;11.508;2024-03-29T05:05:49;97905.91;;;3.93;100.00
21545;BME280;10933;50.754;11.508;2024-03-29T05:08:15;97913.31;;;4.08;100.00
21545;BME280;10933;50.754;11.508;2024-03-29T05:10:42;97929.22;;;3.81;100.00
21545;BME280;10933;50.754;11.508;2024-03-29T05:13:09;97944.50;;;4.07;100.00
21545;BME280;10933;50.754;11.508;2024-03-29T05:15:35;97922.91;;;3.87;100.00
21545;BME280;10933;50.754;11.508;2024-03-29T05:18:01;97928.50;;;4.07;100.00
21545;BME280;10933;50.754;11.508;2024-03-29T05:20:27;97934.41;;;4.09;100.00
21545;BME280;10933;50.754;11.508;2024-03-29T05:22:53;97942.31;;;4.04;100.00
21545;BME280;10933;50.754;11.508;2024-03-29T05:25:19;97939.09;;;4.02;100.00
21545;BME280;10933;50.754;11.508;2024-03-29T05:27:45;97942.41;;;4.09;100.00
21545;BME280;10933;50.754;11.508;2024-03-29T05:30:11;97947.03;;;4.19;100.00
21545;BME280;10933;50.754;11.508;2024-03-29T05:32:39;97947.88;;;4.20;100.00
21545;BME280;10933;50.754;11.508;2024-03-29T05:35:05;97943.94;;;4.27;100.00
21545;BME280;10933;50.754;11.508;2024-03-29T05:37:31;97958.63;;;4.30;100.00
21545;BME280;10933;50.754;11.508;2024-03-29T05:39:57;97966.25;;;4.43;100.00
21545;BME280;10933;50.754;11.508;2024-03-29T05:42:27;97959.47;;;4.57;100.00
21545;BME280;10933;50.754;11.508;2024-03-29T05:44:53;97973.19;;;4.66;100.00
21545;BME280;10933;50.754;11.508;2024-03-29T05:47:20;97977.22;;;4.68;100.00
21545;BME280;10933;50.754;11.508;2024-03-29T05:49:49;97985.31;;;4.73;100.00
21545;BME280;10933;50.754;11.508;2024-03-29T05:52:15;97982.31;;;4.70;100.00
21545;BME280;10933;50.754;11.508;2024-03-29T05:54:45;97984.91;;;4.87;100.00
21545;BME280;10933;50.754;11.508;2024-03-29T05:57:11;97981.28;;;4.98;100.00
21545;BME280;10933;50.754;11.508;2024-03-29T05:59:37;97973.41;;;5.13;100.00
21545;BME280;10933;50.754;11.508;2024-03-29T06:02:04;97970.50;;;4.88;100.00
21545;BME280;10933;50.754;11.508;2024-03-29T06:04:30;97958.50;;;4.63;100.00
21545;BME280;10933;50.754;11.508;2024-03-29T06:07:00;97944.34;;;4.95;100.00
21545;BME280;10933;50.754;11.508;2024-03-29T06:09:26;97980.78;;;5.01;100.00
21545;BME280;10933;50.754;11.508;2024-03-29T06:11:56;97964.91;;;5.21;100.00
21545;BME280;10933;50.754;11.508;2024-03-29T06:14:25;97939.03;;;5.32;100.00
21545;BME280;10933;50.754;11.508;2024-03-29T06:17:10;97921.19;;;5.38;100.00
21545;BME280;10933;50.754;11.508;2024-03-29T06:19:49;97934.06;;;5.09;100.00
21545;BME280;10933;50.754;11.508;2024-03-29T06:22:17;97944.19;;;5.07;100.00
21545;BME280;10933;50.754;11.508;2024-03-29T06:24:43;97941.53;;;5.44;100.00
21545;BME280;10933;50.754;11.508;2024-03-29T06:27:10;97928.13;;;5.34;100.00
21545;BME280;10933;50.754;11.508;2024-03-29T06:29:37;97924.34;;;5.29;100.00
21545;BME280;10933;50.754;11.508;2024-03-29T06:32:03;97931.19;;;5.20;100.00
21545;BME280;10933;50.754;11.508;2024-03-29T06:34:31;97965.03;;;5.37;100.00
21545;BME280;10933;50.754;11.508;2024-03-29T06:36:57;97969.06;;;5.76;100.00
21545;BME280;10933;50.754;11.508;2024-03-29T06:39:23;97971.50;;;5.83;100.00
21545;BME280;10933;50.754;11.508;2024-03-29T06:41:51;97999.16;;;5.94;100.00
21545;BME280;10933;50.754;11.508;2024-03-29T06:44:18;98015.16;;;6.31;100.00
21545;BME280;10933;50.754;11.508;2024-03-29T06:46:45;98033.84;;;6.83;100.00
21545;BME280;10933;50.754;11.508;2024-03-29T06:49:11;98044.34;;;7.00;100.00
21545;BME280;10933;50.754;11.508;2024-03-29T06:51:38;98046.81;;;7.12;100.00
21545;BME280;10933;50.754;11.508;2024-03-29T06:54:05;98058.06;;;7.24;100.00
21545;BME280;10933;50.754;11.508;2024-03-29T06:56:31;98041.94;;;7.08;100.00
21545;BME280;10933;50.754;11.508;2024-03-29T06:58:58;98048.94;;;7.20;100.00
21545;BME280;10933;50.754;11.508;2024-03-29T07:01:24;98039.47;;;6.82;100.00
21545;BME280;10933;50.754;11.508;2024-03-29T07:03:50;98043.56;;;7.09;100.00
21545;BME280;10933;50.754;11.508;2024-03-29T07:06:16;98060.22;;;7.27;100.00
21545;BME280;10933;50.754;11.508;2024-03-29T07:08:42;98065.88;;;7.56;100.00
21545;BME280;10933;50.754;11.508;2024-03-29T07:11:09;98071.78;;;7.83;100.00
21545;BME280;10933;50.754;11.508;2024-03-29T07:13:35;98062.38;;;7.96;100.00
21545;BME280;10933;50.754;11.508;2024-03-29T07:16:03;98069.88;;;8.24;100.00
21545;BME280;10933;50.754;11.508;2024-03-29T07:18:29;98086.50;;;8.57;100.00
21545;BME280;10933;50.754;11.508;2024-03-29T07:20:55;98084.81;;;8.71;100.00
21545;BME280;10933;50.754;11.508;2024-03-29T07:23:21;98102.00;;;8.80;100.00
21545;BME280;10933;50.754;11.508;2024-03-29T07:26:02;98111.84;;;9.05;100.00
21545;BME280;10933;50.754;11.508;2024-03-29T07:28:29;98106.69;;;9.19;100.00
21545;BME280;10933;50.754;11.508;2024-03-29T07:30:56;98120.38;;;9.23;100.00
21545;BME280;10933;50.754;11.508;2024-03-29T07:33:23;98119.00;;;9.30;100.00
21545;BME280;10933;50.754;11.508;2024-03-29T07:35:52;98131.19;;;9.62;100.00
21545;BME280;10933;50.754;11.508;2024-03-29T07:38:19;98148.81;;;9.83;100.00
21545;BME280;10933;50.754;11.508;2024-03-29T07:40:47;98131.69;;;9.69;100.00
21545;BME280;10933;50.754;11.508;2024-03-29T07:43:13;98131.06;;;9.82;100.00
21545;BME280;10933;50.754;11.508;2024-03-29T07:45:43;98116.91;;;10.00;100.00
21545;BME280;10933;50.754;11.508;2024-03-29T07:48:17;98119.88;;;9.99;100.00
21545;BME280;10933;50.754;11.508;2024-03-29T07:50:44;98130.56;;;10.09;100.00
21545;BME280;10933;50.754;11.508;2024-03-29T07:53:11;98122.72;;;10.13;100.00
21545;BME280;10933;50.754;11.508;2024-03-29T07:55:40;98122.81;;;10.02;100.00
21545;BME280;10933;50.754;11.508;2024-03-29T07:58:07;98120.91;;;10.03;100.00
21545;BME280;10933;50.754;11.508;2024-03-29T08:00:35;98114.63;;;10.13;100.00
21545;BME280;10933;50.754;11.508;2024-03-29T08:03:01;98118.09;;;10.18;100.00
21545;BME280;10933;50.754;11.508;2024-03-29T08:05:28;98114.59;;;10.23;100.00
21545;BME280;10933;50.754;11.508;2024-03-29T08:07:54;98109.84;;;10.68;100.00
21545;BME280;10933;50.754;11.508;2024-03-29T08:10:21;98124.66;;;10.94;100.00
21545;BME280;10933;50.754;11.508;2024-03-29T08:12:47;98107.06;;;10.97;100.00
21545;BME280;10933;50.754;11.508;2024-03-29T08:15:13;98091.38;;;10.80;100.00
21545;BME280;10933;50.754;11.508;2024-03-29T08:17:39;98074.91;;;11.00;100.00
21545;BME280;10933;50.754;11.508;2024-03-29T08:20:05;98074.28;;;11.08;100.00
21545;BME280;10933;50.754;11.508;2024-03-29T08:22:31;98098.22;;;11.34;100.00
21545;BME280;10933;50.754;11.508;2024-03-29T08:25:01;98116.88;;;11.68;100.00
21545;BME280;10933;50.754;11.508;2024-03-29T08:27:29;98129.44;;;11.77;100.00
21545;BME280;10933;50.754;11.508;2024-03-29T08:29:56;98142.09;;;12.01;100.00
21545;BME280;10933;50.754;11.508;2024-03-29T08:32:22;98148.06;;;12.63;100.00
21545;BME280;10933;50.754;11.508;2024-03-29T08:34:48;98127.00;;;12.32;100.00
21545;BME280;10933;50.754;11.508;2024-03-29T08:37:14;98131.16;;;12.25;100.00
21545;BME280;10933;50.754;11.508;2024-03-29T08:39:40;98114.16;;;12.24;100.00
21545;BME280;10933;50.754;11.508;2024-03-29T08:42:06;98128.13;;;12.13;100.00
21545;BME280;10933;50.754;11.508;2024-03-29T08:44:33;98121.19;;;12.39;100.00
21545;BME280;10933;50.754;11.508;2024-03-29T08:47:00;98134.88;;;12.75;100.00
21545;BME280;10933;50.754;11.508;2024-03-29T08:49:29;98135.56;;;12.94;100.00
21545;BME280;10933;50.754;11.508;2024-03-29T08:51:56;98134.88;;;13.03;100.00
21545;BME280;10933;50.754;11.508;2024-03-29T08:54:25;98115.03;;;13.21;100.00
21545;BME280;10933;50.754;11.508;2024-03-29T08:56:51;98119.94;;;13.69;100.00
21545;BME280;10933;50.754;11.508;2024-03-29T08:59:17;98111.50;;;13.70;100.00
21545;BME280;10933;50.754;11.508;2024-03-29T09:01:45;98110.72;;;13.92;100.00
21545;BME280;10933;50.754;11.508;2024-03-29T09:04:14;98110.34;;;14.07;100.00
21545;BME280;10933;50.754;11.508;2024-03-29T09:06:42;98102.47;;;13.97;100.00
21545;BME280;10933;50.754;11.508;2024-03-29T09:09:08;98106.91;;;14.16;100.00
21545;BME280;10933;50.754;11.508;2024-03-29T09:11:36;98113.44;;;14.14;100.00
21545;BME280;10933;50.754;11.508;2024-03-29T09:14:02;98125.22;;;13.88;100.00
21545;BME280;10933;50.754;11.508;2024-03-29T09:16:30;98122.06;;;13.94;100.00
21545;BME280;10933;50.754;11.508;2024-03-29T09:18:56;98110.41;;;13.94;100.00
21545;BME280;10933;50.754;11.508;2024-03-29T09:21:22;98127.56;;;14.25;100.00
21545;BME280;10933;50.754;11.508;2024-03-29T09:23:48;98109.78;;;13.97;100.00
21545;BME280;10933;50.754;11.508;2024-03-29T09:26:18;98110.88;;;13.87;100.00
21545;BME280;10933;50.754;11.508;2024-03-29T09:28:44;98122.81;;;14.53;100.00
21545;BME280;10933;50.754;11.508;2024-03-29T09:31:10;98124.19;;;15.30;100.00
21545;BME280;10933;50.754;11.508;2024-03-29T09:33:37;98133.31;;;15.34;100.00
21545;BME280;10933;50.754;11.508;2024-03-29T09:36:03;98102.28;;;14.69;100.00
21545;BME280;10933;50.754;11.508;2024-03-29T09:38:29;98116.22;;;15.25;100.00
21545;BME280;10933;50.754;11.508;2024-03-29T09:41:15;98111.88;;;15.15;100.00
21545;BME280;10933;50.754;11.508;2024-03-29T09:43:46;98102.44;;;14.64;100.00
21545;BME280;10933;50.754;11.508;2024-03-29T09:46:14;98114.94;;;14.83;100.00
21545;BME280;10933;50.754;11.508;2024-03-29T09:48:44;98097.00;;;14.64;100.00
21545;BME280;10933;50.754;11.508;2024-03-29T09:51:13;98104.34;;;14.41;100.00
21545;BME280;10933;50.754;11.508;2024-03-29T09:53:42;98110.34;;;14.52;100.00
21545;BME280;10933;50.754;11.508;2024-03-29T09:56:09;98095.41;;;14.63;100.00
21545;BME280;10933;50.754;11.508;2024-03-29T09:58:36;98108.28;;;14.58;100.00
21545;BME280;10933;50.754;11.508;2024-03-29T10:01:04;98104.13;;;14.52;100.00
21545;BME280;10933;50.754;11.508;2024-03-29T10:03:32;98112.28;;;14.60;100.00
21545;BME280;10933;50.754;11.508;2024-03-29T10:06:01;98121.06;;;14.57;100.00
21545;BME280;10933;50.754;11.508;2024-03-29T10:08:29;98120.47;;;14.38;100.00
21545;BME280;10933;50.754;11.508;2024-03-29T10:10:59;98131.97;;;14.66;100.00
21545;BME280;10933;50.754;11.508;2024-03-29T10:13:26;98122.38;;;14.68;100.00
21545;BME280;10933;50.754;11.508;2024-03-29T10:15:55;98133.72;;;14.70;100.00
21545;BME280;10933;50.754;11.508;2024-03-29T10:18:27;98139.41;;;14.60;100.00
21545;BME280;10933;50.754;11.508;2024-03-29T10:21:04;98136.59;;;14.65;100.00
21545;BME280;10933;50.754;11.508;2024-03-29T10:23:31;98127.25;;;14.27;100.00
21545;BME280;10933;50.754;11.508;2024-03-29T10:25:57;98148.19;;;14.35;100.00
21545;BME280;10933;50.754;11.508;2024-03-29T10:28:29;98151.91;;;14.39;100.00
21545;BME280;10933;50.754;11.508;2024-03-29T10:30:55;98153.25;;;14.28;100.00
21545;BME280;10933;50.754;11.508;2024-03-29T10:33:22;98155.47;;;14.26;100.00
21545;BME280;10933;50.754;11.508;2024-03-29T10:35:48;98155.66;;;14.29;100.00
21545;BME280;10933;50.754;11.508;2024-03-29T10:38:14;98144.31;;;14.05;100.00
21545;BME280;10933;50.754;11.508;2024-03-29T10:40:41;98161.69;;;13.68;100.00
21545;BME280;10933;50.754;11.508;2024-03-29T10:43:10;98183.06;;;13.69;100.00
21545;BME280;10933;50.754;11.508;2024-03-29T10:45:40;98166.97;;;13.50;100.00
21545;BME280;10933;50.754;11.508;2024-03-29T10:48:06;98129.44;;;13.44;100.00
21545;BME280;10933;50.754;11.508;2024-03-29T10:50:36;98203.50;;;13.25;100.00
21545;BME280;10933;50.754;11.508;2024-03-29T10:53:03;98206.50;;;13.38;100.00
21545;BME280;10933;50.754;11.508;2024-03-29T10:55:36;98211.00;;;13.29;100.00
21545;BME280;10933;50.754;11.508;2024-03-29T10:58:03;98197.63;;;13.05;100.00
21545;BME280;10933;50.754;11.508;2024-03-29T11:00:33;98167.63;;;12.74;100.00
21545;BME280;10933;50.754;11.508;2024-03-29T11:05:44;98185.53;;;12.56;100.00
21545;BME280;10933;50.754;11.508;2024-03-29T11:08:11;98201.34;;;12.49;100.00
21545;BME280;10933;50.754;11.508;2024-03-29T11:10:45;98195.09;;;12.81;100.00
21545;BME280;10933;50.754;11.508;2024-03-29T11:13:47;98189.72;;;12.48;100.00
21545;BME280;10933;50.754;11.508;2024-03-29T11:16:15;98183.47;;;12.34;100.00
21545;BME280;10933;50.754;11.508;2024-03-29T11:18:47;98181.97;;;12.09;100.00
21545;BME280;10933;50.754;11.508;2024-03-29T11:21:15;98195.41;;;12.14;100.00
21545;BME280;10933;50.754;11.508;2024-03-29T11:23:49;98175.47;;;11.91;100.00
21545;BME280;10933;50.754;11.508;2024-03-29T11:26:16;98184.78;;;11.61;100.00
21545;BME280;10933;50.754;11.508;2024-03-29T11:28:49;98173.22;;;11.37;100.00
21545;BME280;10933;50.754;11.508;2024-03-29T11:31:16;98165.50;;;11.06;100.00
21545;BME280;10933;50.754;11.508;2024-03-29T11:36:20;98116.81;;;10.45;100.00
21545;BME280;10933;50.754;11.508;2024-03-29T11:38:55;98102.53;;;10.44;100.00
21545;BME280;10933;50.754;11.508;2024-03-29T11:41:24;98073.44;;;10.41;100.00
21545;BME280;10933;50.754;11.508;2024-03-29T11:43:51;98076.66;;;10.43;100.00
21545;BME280;10933;50.754;11.508;2024-03-29T11:46:18;98059.22;;;10.36;100.00
21545;BME280;10933;50.754;11.508;2024-03-29T11:48:45;98056.34;;;10.51;100.00
21545;BME280;10933;50.754;11.508;2024-03-29T11:51:20;98050.63;;;10.57;100.00
21545;BME280;10933;50.754;11.508;2024-03-29T11:53:48;98053.34;;;10.52;100.00
21545;BME280;10933;50.754;11.508;2024-03-29T11:56:17;98043.16;;;10.49;100.00
21545;BME280;10933;50.754;11.508;2024-03-29T11:58:43;98046.72;;;10.69;100.00
21545;BME280;10933;50.754;11.508;2024-03-29T12:01:10;98057.34;;;10.79;100.00
21545;BME280;10933;50.754;11.508;2024-03-29T12:03:40;98048.28;;;10.94;100.00
21545;BME280;10933;50.754;11.508;2024-03-29T12:06:07;98026.25;;;10.68;100.00
21545;BME280;10933;50.754;11.508;2024-03-29T12:08:40;98004.50;;;10.78;100.00
21545;BME280;10933;50.754;11.508;2024-03-29T12:11:08;98001.34;;;10.95;100.00
21545;BME280;10933;50.754;11.508;2024-03-29T12:13:34;97984.66;;;10.93;100.00
21545;BME280;10933;50.754;11.508;2024-03-29T12:16:01;97992.88;;;11.01;100.00
21545;BME280;10933;50.754;11.508;2024-03-29T12:18:27;98010.22;;;11.14;100.00
21545;BME280;10933;50.754;11.508;2024-03-29T12:20:59;97995.28;;;11.22;100.00
21545;BME280;10933;50.754;11.508;2024-03-29T12:23:25;98003.75;;;11.34;100.00
21545;BME280;10933;50.754;11.508;2024-03-29T12:25:54;98012.25;;;11.60;100.00
21545;BME280;10933;50.754;11.508;2024-03-29T12:28:24;98002.66;;;11.67;100.00
21545;BME280;10933;50.754;11.508;2024-03-29T12:30:51;97995.22;;;11.92;100.00
21545;BME280;10933;50.754;11.508;2024-03-29T12:33:19;97989.28;;;11.76;100.00
21545;BME280;10933;50.754;11.508;2024-03-29T12:35:48;97982.53;;;12.06;100.00
21545;BME280;10933;50.754;11.508;2024-03-29T12:38:19;97971.78;;;12.33;100.00
21545;BME280;10933;50.754;11.508;2024-03-29T12:40:47;97974.56;;;12.42;100.00
21545;BME280;10933;50.754;11.508;2024-03-29T12:43:21;97973.34;;;12.62;100.00
21545;BME280;10933;50.754;11.508;2024-03-29T12:45:48;97966.13;;;13.07;100.00
21545;BME280;10933;50.754;11.508;2024-03-29T12:48:17;97954.34;;;13.70;100.00
21545;BME280;10933;50.754;11.508;2024-03-29T12:50:44;97961.72;;;13.47;100.00
21545;BME280;10933;50.754;11.508;2024-03-29T12:53:12;97966.88;;;14.20;100.00